Main page
METAR-TAF:

METAR-TAF

Airports :

Blackpool Airport

Blackpool, England

latitude: 53-46N, longitude: 003-02W, elevation: 10 m

Current weather observation

The report was made 3 hours and 3 minutes ago, at 18:50 UTC
Wind 17 kt from the West
Temperature 14°C
Humidity 82%
Pressure 1012 hPa
Visibility 10 km or more
Few clouds at a height of 2000 ft

METAR: EGNH 251850Z 28017KT 9999 FEW020 14/11 Q1012

Time: 22:53 (21:53 UTC)

Forecast

The report was made 4 hours and 51 minutes ago, at 17:02 UTC
Forecast valid from 25 at 18 UTC to 25 at 20 UTC
Wind 18 kt from the West
Visibility 10 km or more
Few clouds at a height of 4000 ft
Becoming
from 25 at 18 UTC to 25 at 20 UTC
Wind 8 kt from the West

TAF: EGNH 251702Z 2518/2520 27018KT 9999 FEW040 BECMG 2518/2520 26008KT

Weather observations and forecasts of more than 4000 airports (METAR and TAF reports).

The available stations are represented by yellow and red dots on the map.

Hover mouse over dot to see the name of the station.

Then click to see weather observations and forecasts.

To change the map : click on the green buttons with a black cross to zoom in, on the green button with a dash to zoom out, or on the green arrows for adjacent maps.


METAR-TAF: